Time;durP1;ratioP1;P1;durP2;ratioP2;P2;SDS_P1;SDS_P2;PMS_P1;PMS_P2;Temp;Humidity;BMP_temperature;BMP_pressure;BME280_temperature;BME280_humidity;BME280_pressure;Samples;Min_cycle;Max_cycle;Signal;HPM_P1;HPM_P2
2023/02/21 02:15:07;;;;;;;1.80;1.80;;;;;;;;;;6212189;28;20299;-79
2023/02/21 02:18:35;;;;;;;1.90;1.90;;;;;;;;;;6211684;28;20307;-79
2023/02/21 02:22:07;;;;;;;2.07;2.00;;;;;;;;;;6214314;28;20313;-78
2023/02/21 02:25:23;;;;;;;1.90;1.90;;;;;;;;;;6228492;28;20304;-80
2023/02/21 02:28:42;;;;;;;1.93;1.70;;;;;;;;;;6212001;28;20393;-81
2023/02/21 02:32:22;;;;;;;1.80;1.70;;;;;;;;;;6212500;28;20305;-79
2023/02/21 02:35:31;;;;;;;1.70;1.70;;;;;;;;;;6199950;28;20545;-81
2023/02/21 02:38:42;;;;;;;1.90;1.90;;;;;;;;;;6188810;28;20299;-78
2023/02/21 02:41:53;;;;;;;1.90;1.90;;;;;;;;;;6196472;28;20301;-79
2023/02/21 02:45:01;;;;;;;2.27;2.17;;;;;;;;;;6187311;28;20297;-79
2023/02/21 02:48:14;;;;;;;2.30;2.30;;;;;;;;;;6187582;28;20478;-79
2023/02/21 02:51:21;;;;;;;3.23;2.60;;;;;;;;;;6188481;28;20277;-79
2023/02/21 02:54:26;;;;;;;2.50;2.50;;;;;;;;;;6203188;28;20297;-78
2023/02/21 02:57:39;;;;;;;2.67;2.60;;;;;;;;;;6187179;28;20562;-79
2023/02/21 03:00:48;;;;;;;3.40;3.20;;;;;;;;;;6202462;28;20297;-79
2023/02/21 03:04:03;;;;;;;2.90;2.80;;;;;;;;;;6202420;28;20309;-78
2023/02/21 03:07:17;;;;;;;2.70;2.60;;;;;;;;;;6186720;28;20505;-79
2023/02/21 03:10:31;;;;;;;3.13;3.03;;;;;;;;;;6193999;28;20289;-79
2023/02/21 03:13:43;;;;;;;3.17;2.97;;;;;;;;;;6209586;28;20292;-80
2023/02/21 03:16:53;;;;;;;2.73;2.67;;;;;;;;;;6210840;28;20304;-79
2023/02/21 03:20:03;;;;;;;3.13;3.03;;;;;;;;;;6210538;28;20611;-80
2023/02/21 03:23:12;;;;;;;2.80;2.77;;;;;;;;;;6226373;28;20290;-80
2023/02/21 03:26:18;;;;;;;3.13;3.00;;;;;;;;;;6211563;28;20295;-79
2023/02/21 03:29:28;;;;;;;2.93;2.83;;;;;;;;;;6210375;28;20293;-78
2023/02/21 03:35:42;;;;;;;3.10;2.90;;;;;;;;;;6182274;28;20296;-79
2023/02/21 03:38:49;;;;;;;3.07;2.97;;;;;;;;;;6202331;28;20345;-79
2023/02/21 03:41:56;;;;;;;2.93;2.83;;;;;;;;;;6186199;28;20304;-79
2023/02/21 03:45:01;;;;;;;2.77;2.67;;;;;;;;;;6202062;28;20305;-79
2023/02/21 03:48:07;;;;;;;2.87;2.80;;;;;;;;;;6185131;28;20297;-79
2023/02/21 03:51:15;;;;;;;3.03;2.93;;;;;;;;;;6201831;28;20276;-79
2023/02/21 03:54:22;;;;;;;3.20;3.10;;;;;;;;;;6185110;28;20304;-80
2023/02/21 03:57:30;;;;;;;2.90;2.80;;;;;;;;;;6185760;28;20300;-79
2023/02/21 04:00:35;;;;;;;2.83;2.73;;;;;;;;;;6186732;28;20309;-79
2023/02/21 04:03:41;;;;;;;3.20;3.10;;;;;;;;;;6193238;28;20300;-79
2023/02/21 04:06:46;;;;;;;3.27;3.00;;;;;;;;;;6197333;28;20296;-79
2023/02/21 04:09:52;;;;;;;3.10;3.00;;;;;;;;;;6224355;28;20495;-79
2023/02/21 04:13:11;;;;;;;3.77;3.20;;;;;;;;;;6185057;28;20296;-80
2023/02/21 04:16:20;;;;;;;2.90;2.80;;;;;;;;;;6185664;28;20293;-79
2023/02/21 04:19:28;;;;;;;3.77;3.57;;;;;;;;;;6195014;28;20332;-78
2023/02/21 04:22:35;;;;;;;3.50;3.30;;;;;;;;;;6225210;28;20295;-78
2023/02/21 04:25:42;;;;;;;4.47;4.07;;;;;;;;;;6209992;28;20502;-78
2023/02/21 04:28:52;;;;;;;3.60;3.40;;;;;;;;;;6229280;28;20304;-77
2023/02/21 04:31:58;;;;;;;4.43;4.10;;;;;;;;;;6215122;28;20563;-78
2023/02/21 04:35:03;;;;;;;4.27;3.93;;;;;;;;;;6220634;28;20301;-78
2023/02/21 04:38:12;;;;;;;4.53;4.13;;;;;;;;;;6212867;28;20301;-78
2023/02/21 04:41:20;;;;;;;4.37;4.07;;;;;;;;;;6230377;28;20307;-78
2023/02/21 04:44:25;;;;;;;4.97;4.57;;;;;;;;;;6214153;28;20302;-79
2023/02/21 04:47:30;;;;;;;4.70;4.30;;;;;;;;;;6215735;28;20294;-79
2023/02/21 04:50:36;;;;;;;4.67;4.27;;;;;;;;;;6231747;28;20469;-79
2023/02/21 04:53:41;;;;;;;3.93;3.63;;;;;;;;;;6215461;28;20299;-78
2023/02/21 04:56:50;;;;;;;3.90;3.60;;;;;;;;;;6215949;28;20481;-79
2023/02/21 04:59:59;;;;;;;3.20;3.00;;;;;;;;;;6215472;28;20308;-79
2023/02/21 05:03:05;;;;;;;3.60;3.40;;;;;;;;;;6214074;28;20591;-80
2023/02/21 05:06:16;;;;;;;3.00;2.90;;;;;;;;;;6215299;28;20277;-79
2023/02/21 05:09:21;;;;;;;2.90;2.77;;;;;;;;;;6213516;28;20320;-78
2023/02/21 05:12:28;;;;;;;3.20;2.97;;;;;;;;;;6168206;28;20302;-79
2023/02/21 05:15:34;;;;;;;2.50;2.50;;;;;;;;;;6167195;28;20618;-80
2023/02/21 05:18:41;;;;;;;3.10;2.80;;;;;;;;;;6166105;28;20291;-78
2023/02/21 05:21:46;;;;;;;3.10;3.00;;;;;;;;;;6191577;28;20290;-79
2023/02/21 05:24:51;;;;;;;2.60;2.50;;;;;;;;;;6177272;28;20298;-77
2023/02/21 05:27:58;;;;;;;2.93;2.80;;;;;;;;;;6178821;28;20298;-77
2023/02/21 05:31:07;;;;;;;2.87;2.67;;;;;;;;;;6180648;28;20262;-81
2023/02/21 05:34:14;;;;;;;3.07;2.80;;;;;;;;;;6170697;28;20582;-79
2023/02/21 05:37:20;;;;;;;2.70;2.60;;;;;;;;;;6181070;28;20279;-78
2023/02/21 05:40:25;;;;;;;2.40;2.30;;;;;;;;;;6180437;28;20267;-79
2023/02/21 05:43:32;;;;;;;3.00;2.80;;;;;;;;;;6172944;28;20305;-78
2023/02/21 05:46:38;;;;;;;3.27;2.60;;;;;;;;;;6168143;28;20298;-79
2023/02/21 05:49:43;;;;;;;2.63;2.53;;;;;;;;;;6165931;28;20303;-79
2023/02/21 05:52:48;;;;;;;2.87;2.77;;;;;;;;;;6166381;28;20383;-79
2023/02/21 05:55:53;;;;;;;3.13;2.90;;;;;;;;;;6166461;28;20294;-80
2023/02/21 05:58:59;;;;;;;2.70;2.60;;;;;;;;;;6166436;28;20302;-79
2023/02/21 06:02:05;;;;;;;2.60;2.50;;;;;;;;;;6166715;28;20607;-78
2023/02/21 06:05:14;;;;;;;2.67;2.57;;;;;;;;;;6180711;28;20301;-79
2023/02/21 06:08:19;;;;;;;2.87;2.63;;;;;;;;;;6166049;28;20293;-78
2023/02/21 06:11:26;;;;;;;2.70;2.60;;;;;;;;;;6198103;28;20300;-80
2023/02/21 06:14:33;;;;;;;2.60;2.50;;;;;;;;;;6214817;28;20293;-79
2023/02/21 06:17:43;;;;;;;2.70;2.70;;;;;;;;;;6214026;28;20293;-79
2023/02/21 06:20:48;;;;;;;2.47;2.37;;;;;;;;;;6214384;28;20297;-79
2023/02/21 06:23:54;;;;;;;2.47;2.27;;;;;;;;;;6214385;28;20295;-79
2023/02/21 06:27:00;;;;;;;2.30;2.30;;;;;;;;;;6213598;28;20296;-79
2023/02/21 06:30:10;;;;;;;2.07;2.07;;;;;;;;;;6213219;28;20302;-79
2023/02/21 06:33:16;;;;;;;2.30;2.20;;;;;;;;;;6212596;28;20604;-78
2023/02/21 06:36:27;;;;;;;2.27;2.27;;;;;;;;;;6196496;28;20304;-79
2023/02/21 06:39:32;;;;;;;2.30;2.20;;;;;;;;;;6189097;28;20309;-80
2023/02/21 06:42:39;;;;;;;2.50;2.30;;;;;;;;;;6187781;28;20293;-78
2023/02/21 06:45:47;;;;;;;4.50;4.13;;;;;;;;;;6189227;28;20301;-78
2023/02/21 06:48:53;;;;;;;2.57;2.47;;;;;;;;;;6188857;28;20484;-78
2023/02/21 06:51:58;;;;;;;2.60;2.50;;;;;;;;;;6188412;28;20471;-77
2023/02/21 06:55:03;;;;;;;2.20;2.10;;;;;;;;;;6172063;28;20301;-79
2023/02/21 06:58:09;;;;;;;2.80;2.70;;;;;;;;;;6188825;28;20296;-78
2023/02/21 07:01:16;;;;;;;2.57;2.47;;;;;;;;;;6189288;28;20293;-78
2023/02/21 07:04:21;;;;;;;2.40;2.33;;;;;;;;;;6188204;28;20295;-78
2023/02/21 07:07:26;;;;;;;2.63;2.20;;;;;;;;;;6188920;28;20297;-77
2023/02/21 07:10:32;;;;;;;2.37;2.30;;;;;;;;;;6196720;28;20285;-78
2023/02/21 07:13:37;;;;;;;2.60;2.40;;;;;;;;;;6211939;28;20296;-79
2023/02/21 07:16:43;;;;;;;2.53;2.43;;;;;;;;;;6212545;28;20405;-79
2023/02/21 07:19:48;;;;;;;2.67;2.57;;;;;;;;;;6212376;28;20624;-80
2023/02/21 07:22:54;;;;;;;2.23;2.13;;;;;;;;;;6212198;28;20295;-79
2023/02/21 07:25:59;;;;;;;2.70;2.60;;;;;;;;;;6212298;28;20357;-79
2023/02/21 07:29:04;;;;;;;2.70;2.60;;;;;;;;;;6211048;28;20303;-79
2023/02/21 07:32:12;;;;;;;5.13;3.13;;;;;;;;;;6212548;28;20601;-79
2023/02/21 07:35:18;;;;;;;3.77;3.37;;;;;;;;;;6213014;28;20476;-78
2023/02/21 07:38:24;;;;;;;3.23;3.03;;;;;;;;;;6211662;28;20296;-78
2023/02/21 07:41:30;;;;;;;2.97;2.87;;;;;;;;;;6212171;28;20293;-80
2023/02/21 07:44:35;;;;;;;3.13;2.93;;;;;;;;;;6211996;28;20295;-80
2023/02/21 07:47:44;;;;;;;3.03;2.93;;;;;;;;;;6211289;28;20295;-79
2023/02/21 07:50:52;;;;;;;3.17;2.97;;;;;;;;;;6226301;28;20312;-78
2023/02/21 07:53:57;;;;;;;4.13;3.87;;;;;;;;;;6226335;28;20561;-78
2023/02/21 07:57:02;;;;;;;4.87;4.10;;;;;;;;;;6211874;28;20298;-79
2023/02/21 08:00:08;;;;;;;4.07;3.70;;;;;;;;;;6210328;28;20395;-79
2023/02/21 08:03:18;;;;;;;4.03;3.73;;;;;;;;;;6210108;28;20321;-80
2023/02/21 08:06:24;;;;;;;3.53;3.23;;;;;;;;;;6211371;28;20304;-79
2023/02/21 08:09:29;;;;;;;4.70;3.87;;;;;;;;;;6210496;28;20325;-79
2023/02/21 08:12:35;;;;;;;5.13;3.63;;;;;;;;;;6186522;28;20296;-80
2023/02/21 08:15:41;;;;;;;4.63;4.33;;;;;;;;;;6186141;28;20293;-79
2023/02/21 08:18:50;;;;;;;3.87;3.60;;;;;;;;;;6186585;28;20305;-79
2023/02/21 08:21:55;;;;;;;4.07;3.73;;;;;;;;;;6186726;28;20567;-80
2023/02/21 08:25:00;;;;;;;4.27;3.87;;;;;;;;;;6186984;28;20300;-79
2023/02/21 08:28:06;;;;;;;4.57;4.27;;;;;;;;;;6187510;28;20300;-80
2023/02/21 08:31:11;;;;;;;3.10;2.93;;;;;;;;;;6187647;28;20300;-81
2023/02/21 08:34:20;;;;;;;3.70;3.50;;;;;;;;;;6186534;28;20301;-81
2023/02/21 08:37:31;;;;;;;3.97;3.73;;;;;;;;;;6211835;28;20300;-79
2023/02/21 08:40:37;;;;;;;4.70;4.30;;;;;;;;;;6209805;28;20303;-80
2023/02/21 08:43:43;;;;;;;7.13;3.67;;;;;;;;;;6213073;28;20288;-80
2023/02/21 08:46:48;;;;;;;4.37;4.07;;;;;;;;;;6212388;28;20305;-80
2023/02/21 08:49:55;;;;;;;4.30;4.00;;;;;;;;;;6212064;28;20299;-81
2023/02/21 08:53:00;;;;;;;4.03;3.73;;;;;;;;;;6211156;28;20310;-81
2023/02/21 08:56:07;;;;;;;4.63;4.20;;;;;;;;;;6211408;28;20291;-81
2023/02/21 08:59:15;;;;;;;4.13;3.70;;;;;;;;;;6210758;28;20301;-80
2023/02/21 09:02:23;;;;;;;3.80;3.60;;;;;;;;;;6212064;28;20293;-80
2023/02/21 09:05:31;;;;;;;4.23;3.83;;;;;;;;;;6212504;28;20459;-81
2023/02/21 09:08:37;;;;;;;3.80;3.60;;;;;;;;;;6214048;28;20316;-81
2023/02/21 09:11:45;;;;;;;3.77;3.57;;;;;;;;;;6190857;28;20483;-81
2023/02/21 09:14:51;;;;;;;3.83;3.53;;;;;;;;;;6190204;28;20294;-80
2023/02/21 09:17:56;;;;;;;4.10;3.90;;;;;;;;;;6189029;28;20297;-81
2023/02/21 09:21:03;;;;;;;5.17;4.03;;;;;;;;;;6191781;28;20305;-81
2023/02/21 09:24:09;;;;;;;4.03;3.73;;;;;;;;;;6181566;28;20301;-82
2023/02/21 09:27:16;;;;;;;4.17;3.83;;;;;;;;;;6191530;28;20288;-81
2023/02/21 09:30:24;;;;;;;5.07;3.67;;;;;;;;;;6190564;28;20306;-81
2023/02/21 09:33:30;;;;;;;4.27;4.00;;;;;;;;;;6189630;28;20293;-80
2023/02/21 09:36:38;;;;;;;3.87;3.67;;;;;;;;;;6209346;28;20567;-81
2023/02/21 09:39:49;;;;;;;4.47;4.07;;;;;;;;;;6215429;28;20311;-80
2023/02/21 09:43:32;;;;;;;4.03;3.80;;;;;;;;;;6214876;28;20297;-82
2023/02/21 09:46:40;;;;;;;4.03;3.83;;;;;;;;;;6213047;28;20301;-81
2023/02/21 09:49:46;;;;;;;4.23;3.90;;;;;;;;;;6214300;28;20302;-81
2023/02/21 09:52:52;;;;;;;4.63;4.30;;;;;;;;;;6212832;28;20542;-82
2023/02/21 09:56:27;;;;;;;3.67;3.47;;;;;;;;;;6226884;28;20308;-80
2023/02/21 10:00:42;;;;;;;4.07;3.80;;;;;;;;;;6178238;28;20325;-81
2023/02/21 10:04:13;;;;;;;3.43;3.23;;;;;;;;;;6211680;28;20305;-82
2023/02/21 10:07:23;;;;;;;3.80;3.50;;;;;;;;;;6213284;28;20301;-80
2023/02/21 10:10:35;;;;;;;3.87;3.67;;;;;;;;;;6205126;28;20298;-81
2023/02/21 10:13:46;;;;;;;3.33;3.13;;;;;;;;;;6189193;28;20302;-81
2023/02/21 10:16:56;;;;;;;3.87;3.67;;;;;;;;;;6188404;28;20300;-81
2023/02/21 10:20:05;;;;;;;3.80;3.50;;;;;;;;;;6189510;28;20301;-81
2023/02/21 10:23:18;;;;;;;2.90;2.70;;;;;;;;;;6188897;28;20308;-82
2023/02/21 10:26:28;;;;;;;3.50;3.20;;;;;;;;;;6188521;28;20293;-81
2023/02/21 10:29:39;;;;;;;3.50;3.30;;;;;;;;;;6189744;28;20306;-81
2023/02/21 10:32:48;;;;;;;3.67;3.57;;;;;;;;;;6188040;28;20328;-80
2023/02/21 10:35:53;;;;;;;3.43;3.13;;;;;;;;;;6201037;28;20400;-81
2023/02/21 10:39:06;;;;;;;3.33;3.20;;;;;;;;;;6212724;28;20298;-80
2023/02/21 10:42:25;;;;;;;3.57;3.40;;;;;;;;;;6214521;28;20270;-78
2023/02/21 10:45:35;;;;;;;3.20;3.10;;;;;;;;;;6211722;28;20297;-80
2023/02/21 10:48:42;;;;;;;3.33;3.13;;;;;;;;;;6194543;28;20294;-80
2023/02/21 10:51:47;;;;;;;3.30;3.20;;;;;;;;;;6212526;28;20300;-79
2023/02/21 10:55:04;;;;;;;3.30;3.20;;;;;;;;;;6212096;28;20304;-79
2023/02/21 10:58:23;;;;;;;3.60;3.50;;;;;;;;;;6211977;28;20285;-80
2023/02/21 11:01:36;;;;;;;3.60;3.40;;;;;;;;;;6212328;28;20292;-81
2023/02/21 11:04:42;;;;;;;3.20;3.07;;;;;;;;;;6211751;28;20582;-79
2023/02/21 11:08:00;;;;;;;6.77;3.40;;;;;;;;;;6211043;28;20297;-79
2023/02/21 11:11:06;;;;;;;3.40;3.20;;;;;;;;;;6198709;28;20293;-79
2023/02/21 11:14:25;;;;;;;3.23;3.13;;;;;;;;;;6186787;28;20345;-78
2023/02/21 11:17:32;;;;;;;3.60;3.40;;;;;;;;;;6186774;28;20296;-78
2023/02/21 11:20:38;;;;;;;3.63;3.43;;;;;;;;;;6187639;28;20424;-79
2023/02/21 11:23:47;;;;;;;3.90;3.70;;;;;;;;;;6186989;28;20294;-78
2023/02/21 11:26:54;;;;;;;3.93;3.73;;;;;;;;;;6187807;28;20301;-79
2023/02/21 11:30:03;;;;;;;3.70;3.50;;;;;;;;;;6186663;28;20310;-80
2023/02/21 11:33:12;;;;;;;3.70;3.50;;;;;;;;;;6185545;28;20304;-79
2023/02/21 11:36:39;;;;;;;3.73;3.53;;;;;;;;;;6205981;28;20568;-79
2023/02/21 11:39:52;;;;;;;3.77;3.47;;;;;;;;;;6210512;28;20302;-80
2023/02/21 11:43:22;;;;;;;5.33;3.57;;;;;;;;;;6210271;28;20296;-79
2023/02/21 11:46:40;;;;;;;3.20;3.07;;;;;;;;;;6207544;28;20554;-79
2023/02/21 11:49:53;;;;;;;3.00;2.90;;;;;;;;;;6210532;28;20300;-78
2023/02/21 11:53:04;;;;;;;3.37;3.17;;;;;;;;;;6210942;28;20289;-79
2023/02/21 11:56:20;;;;;;;3.33;3.13;;;;;;;;;;6211992;28;20305;-77
2023/02/21 11:59:36;;;;;;;3.47;3.30;;;;;;;;;;6215740;28;20300;-78
2023/02/21 12:03:06;;;;;;;4.40;4.00;;;;;;;;;;6208951;28;20304;-78
2023/02/21 12:06:17;;;;;;;4.37;4.03;;;;;;;;;;6210350;28;20274;-80
2023/02/21 12:09:27;;;;;;;4.20;3.83;;;;;;;;;;6225410;28;20296;-80
2023/02/21 12:12:43;;;;;;;3.27;3.17;;;;;;;;;;6160846;28;20344;-79
2023/02/21 12:15:57;;;;;;;3.50;3.30;;;;;;;;;;6164235;28;20480;-78
2023/02/21 12:19:25;;;;;;;3.57;3.47;;;;;;;;;;6162844;28;20301;-78
2023/02/21 12:22:41;;;;;;;4.20;3.90;;;;;;;;;;6162988;28;20305;-79
2023/02/21 12:26:09;;;;;;;3.90;3.63;;;;;;;;;;6162140;28;20467;-80
2023/02/21 12:29:24;;;;;;;3.80;3.50;;;;;;;;;;6162772;28;20298;-79
2023/02/21 12:32:51;;;;;;;3.40;3.20;;;;;;;;;;6160534;28;20307;-80
2023/02/21 12:36:14;;;;;;;3.27;3.00;;;;;;;;;;6189620;28;20295;-80
2023/02/21 12:39:38;;;;;;;3.47;3.37;;;;;;;;;;6208677;28;20296;-81
2023/02/21 12:43:12;;;;;;;3.27;3.17;;;;;;;;;;6212217;28;20304;-82
2023/02/21 12:46:22;;;;;;;3.07;2.87;;;;;;;;;;6213371;28;20292;-82
2023/02/21 12:49:32;;;;;;;3.60;3.40;;;;;;;;;;6213895;28;20431;-78
2023/02/21 12:52:41;;;;;;;3.13;2.93;;;;;;;;;;6215988;28;20297;-77
2023/02/21 12:55:49;;;;;;;2.93;2.83;;;;;;;;;;6216377;28;20306;-76
2023/02/21 12:58:58;;;;;;;3.77;3.47;;;;;;;;;;6214467;28;20542;-75
2023/02/21 13:02:10;;;;;;;3.70;3.50;;;;;;;;;;6214976;28;20293;-75
2023/02/21 13:05:19;;;;;;;3.10;2.90;;;;;;;;;;6214728;28;20312;-76
2023/02/21 13:08:28;;;;;;;2.93;2.57;;;;;;;;;;6214737;28;20520;-77
2023/02/21 13:11:38;;;;;;;3.23;3.03;;;;;;;;;;6197947;28;20305;-76
2023/02/21 13:14:49;;;;;;;2.97;2.97;;;;;;;;;;6189568;28;20303;-76
2023/02/21 13:18:00;;;;;;;2.80;2.70;;;;;;;;;;6188762;28;20301;-77
2023/02/21 13:21:17;;;;;;;3.13;3.03;;;;;;;;;;6188521;28;20272;-78
2023/02/21 13:24:43;;;;;;;3.33;3.13;;;;;;;;;;6188829;28;20305;-77
2023/02/21 13:27:56;;;;;;;3.20;3.10;;;;;;;;;;6189361;28;20316;-78
2023/02/21 13:31:02;;;;;;;3.43;3.13;;;;;;;;;;6190721;28;20300;-78
2023/02/21 13:34:10;;;;;;;3.50;3.30;;;;;;;;;;6189322;28;20334;-78
2023/02/21 13:37:17;;;;;;;3.37;3.17;;;;;;;;;;6228594;28;20386;-77
2023/02/21 13:40:32;;;;;;;3.40;3.23;;;;;;;;;;6213610;28;20585;-76
2023/02/21 13:43:49;;;;;;;3.47;3.30;;;;;;;;;;6213850;28;20293;-77
2023/02/21 13:47:09;;;;;;;3.40;3.17;;;;;;;;;;6214031;28;20293;-76
2023/02/21 13:50:45;;;;;;;3.43;3.23;;;;;;;;;;6213310;28;20441;-76
2023/02/21 13:54:08;;;;;;;3.43;3.23;;;;;;;;;;6212084;28;20364;-76
2023/02/21 13:57:33;;;;;;;3.23;3.00;;;;;;;;;;6212880;28;20267;-78
2023/02/21 14:00:54;;;;;;;2.60;2.50;;;;;;;;;;6210471;28;20298;-77
2023/02/21 14:03:59;;;;;;;3.00;2.90;;;;;;;;;;6212753;28;20305;-77
2023/02/21 14:07:06;;;;;;;3.27;3.10;;;;;;;;;;6213261;28;20292;-77
2023/02/21 14:10:27;;;;;;;3.60;3.20;;;;;;;;;;6206203;28;20463;-76
2023/02/21 14:13:35;;;;;;;3.93;3.03;;;;;;;;;;6187003;28;20251;-75
2023/02/21 14:16:49;;;;;;;3.77;3.07;;;;;;;;;;6188796;28;20334;-76
2023/02/21 14:19:58;;;;;;;3.67;3.47;;;;;;;;;;6188584;28;20436;-76
2023/02/21 14:23:05;;;;;;;3.40;3.23;;;;;;;;;;6188489;28;20306;-76
2023/02/21 14:26:38;;;;;;;3.30;3.03;;;;;;;;;;6189818;28;20339;-77
2023/02/21 14:29:46;;;;;;;3.00;2.90;;;;;;;;;;6202902;28;20368;-75
2023/02/21 14:32:53;;;;;;;3.30;3.20;;;;;;;;;;6187552;28;20304;-76
2023/02/21 14:36:04;;;;;;;3.33;3.23;;;;;;;;;;6201413;28;20288;-78
2023/02/21 14:39:09;;;;;;;4.13;3.70;;;;;;;;;;6210522;28;20553;-80
2023/02/21 14:42:36;;;;;;;3.60;3.40;;;;;;;;;;6212438;28;20560;-81
2023/02/21 14:45:57;;;;;;;3.20;3.10;;;;;;;;;;6224269;28;20359;-79
2023/02/21 14:49:38;;;;;;;3.60;3.40;;;;;;;;;;6210088;28;20304;-77
2023/02/21 14:53:26;;;;;;;3.50;3.30;;;;;;;;;;6211594;28;20304;-77
2023/02/21 14:56:53;;;;;;;3.20;3.10;;;;;;;;;;6211731;28;20308;-80
2023/02/21 15:00:10;;;;;;;3.67;3.47;;;;;;;;;;6226876;28;20303;-81
2023/02/21 15:03:27;;;;;;;3.60;3.37;;;;;;;;;;6209150;28;20299;-80
2023/02/21 15:06:36;;;;;;;3.47;3.27;;;;;;;;;;6212674;28;20284;-81
2023/02/21 15:09:41;;;;;;;4.47;3.57;;;;;;;;;;6209520;28;20292;-81
2023/02/21 15:12:47;;;;;;;5.17;3.50;;;;;;;;;;6187535;28;20293;-84
2023/02/21 15:15:57;;;;;;;3.80;3.60;;;;;;;;;;6188036;28;20301;-82
2023/02/21 15:19:06;;;;;;;4.10;3.80;;;;;;;;;;6187718;28;20479;-83
2023/02/21 15:22:23;;;;;;;3.60;3.30;;;;;;;;;;6187181;28;20354;-81
2023/02/21 15:25:30;;;;;;;4.23;4.03;;;;;;;;;;6186301;28;20300;-78
2023/02/21 15:28:36;;;;;;;4.43;4.10;;;;;;;;;;6201247;28;20295;-79
2023/02/21 15:31:43;;;;;;;3.90;3.70;;;;;;;;;;6186036;28;20585;-79
2023/02/21 15:34:50;;;;;;;4.53;4.30;;;;;;;;;;6186331;28;20300;-77
2023/02/21 15:37:58;;;;;;;4.17;3.90;;;;;;;;;;6184748;28;20389;-80
2023/02/21 15:41:07;;;;;;;3.90;3.70;;;;;;;;;;6187030;28;20498;-79
2023/02/21 15:44:18;;;;;;;3.87;3.67;;;;;;;;;;6201771;28;20295;-81
2023/02/21 15:47:24;;;;;;;4.33;4.13;;;;;;;;;;6188525;28;20382;-78
2023/02/21 15:50:34;;;;;;;4.33;4.00;;;;;;;;;;6185852;28;20299;-80
2023/02/21 15:53:43;;;;;;;3.57;3.37;;;;;;;;;;6184461;28;20308;-80
2023/02/21 15:56:49;;;;;;;4.43;4.13;;;;;;;;;;6186987;28;20294;-79
2023/02/21 16:00:18;;;;;;;4.20;3.77;;;;;;;;;;6186293;28;20306;-79
2023/02/21 16:03:35;;;;;;;3.53;3.33;;;;;;;;;;6185853;28;20570;-78
2023/02/21 16:06:46;;;;;;;4.87;4.47;;;;;;;;;;6201664;28;20355;-78
2023/02/21 16:09:59;;;;;;;4.03;3.70;;;;;;;;;;6188856;28;20303;-79
2023/02/21 16:13:04;;;;;;;4.50;4.03;;;;;;;;;;6210100;28;20290;-80
2023/02/21 16:16:11;;;;;;;4.80;4.33;;;;;;;;;;6210305;28;20293;-79
2023/02/21 16:19:17;;;;;;;4.60;4.30;;;;;;;;;;6209752;28;20314;-79
2023/02/21 16:22:32;;;;;;;4.50;4.20;;;;;;;;;;6225005;28;20637;-79
2023/02/21 16:26:00;;;;;;;4.60;4.17;;;;;;;;;;6210226;28;20301;-80
2023/02/21 16:29:07;;;;;;;4.70;4.20;;;;;;;;;;6209584;28;20302;-80
2023/02/21 16:32:18;;;;;;;4.93;4.53;;;;;;;;;;6211606;28;20420;-80
2023/02/21 16:35:24;;;;;;;3.60;3.30;;;;;;;;;;6201437;28;20607;-79
2023/02/21 16:38:31;;;;;;;5.03;4.67;;;;;;;;;;6184362;28;20298;-78
2023/02/21 16:41:37;;;;;;;4.80;4.50;;;;;;;;;;6185556;28;20439;-79
2023/02/21 16:44:44;;;;;;;4.87;4.43;;;;;;;;;;6199942;28;20404;-80
2023/02/21 16:47:51;;;;;;;5.07;4.57;;;;;;;;;;6185055;28;20374;-78
2023/02/21 16:51:01;;;;;;;4.57;4.27;;;;;;;;;;6195551;28;20298;-79
2023/02/21 16:54:11;;;;;;;6.07;4.60;;;;;;;;;;6184224;28;20306;-79
2023/02/21 16:57:17;;;;;;;5.10;4.70;;;;;;;;;;6184883;28;20292;-78
2023/02/21 17:00:23;;;;;;;5.77;4.93;;;;;;;;;;6185286;28;20477;-79
2023/02/21 17:03:29;;;;;;;5.47;5.07;;;;;;;;;;6184031;28;20448;-81
2023/02/21 17:06:35;;;;;;;5.07;4.63;;;;;;;;;;6186440;28;20295;-79
2023/02/21 17:09:42;;;;;;;5.00;4.50;;;;;;;;;;6186569;28;20293;-78
2023/02/21 17:12:47;;;;;;;5.27;4.77;;;;;;;;;;6210406;28;20293;-78
2023/02/21 17:15:52;;;;;;;5.07;4.67;;;;;;;;;;6210674;28;20506;-79
2023/02/21 17:18:58;;;;;;;5.20;4.80;;;;;;;;;;6209708;28;20298;-79
2023/02/21 17:22:04;;;;;;;5.90;5.00;;;;;;;;;;6210388;28;20290;-79
2023/02/21 17:25:11;;;;;;;4.80;4.50;;;;;;;;;;6209642;28;20299;-78
2023/02/21 17:28:18;;;;;;;6.07;4.37;;;;;;;;;;6206539;28;20292;-79
2023/02/21 17:31:24;;;;;;;5.40;4.90;;;;;;;;;;6208792;28;20291;-79
2023/02/21 17:34:29;;;;;;;5.40;4.90;;;;;;;;;;6209140;28;20302;-80
2023/02/21 17:37:34;;;;;;;5.00;4.60;;;;;;;;;;6213298;28;20307;-79
2023/02/21 17:40:41;;;;;;;5.10;4.67;;;;;;;;;;6228880;28;20384;-79
2023/02/21 17:43:47;;;;;;;5.60;5.10;;;;;;;;;;6211979;28;20302;-79
2023/02/21 17:46:54;;;;;;;7.17;5.33;;;;;;;;;;6214055;28;20301;-79
2023/02/21 17:49:59;;;;;;;7.70;4.80;;;;;;;;;;6213481;28;20299;-79
2023/02/21 17:53:07;;;;;;;5.13;4.63;;;;;;;;;;6208622;28;20359;-78
2023/02/21 17:56:19;;;;;;;5.77;5.03;;;;;;;;;;6222503;28;20357;-78
2023/02/21 17:59:43;;;;;;;6.40;5.47;;;;;;;;;;6213482;28;20305;-78
2023/02/21 18:02:48;;;;;;;6.00;5.07;;;;;;;;;;6211782;28;20430;-79
2023/02/21 18:05:53;;;;;;;6.00;5.37;;;;;;;;;;6211619;28;20308;-80
2023/02/21 18:08:59;;;;;;;6.43;4.63;;;;;;;;;;6212915;28;20303;-79
2023/02/21 18:12:06;;;;;;;5.87;5.17;;;;;;;;;;6202706;28;20273;-79
2023/02/21 18:15:11;;;;;;;5.33;4.83;;;;;;;;;;6188162;28;20295;-79
2023/02/21 18:18:16;;;;;;;5.50;4.50;;;;;;;;;;6188934;28;20296;-80
2023/02/21 18:21:26;;;;;;;5.77;4.97;;;;;;;;;;6189207;28;20472;-79
2023/02/21 18:24:31;;;;;;;7.17;4.97;;;;;;;;;;6188049;28;20297;-78
2023/02/21 18:27:38;;;;;;;4.97;4.57;;;;;;;;;;6188140;28;20350;-79
2023/02/21 18:30:43;;;;;;;7.03;4.97;;;;;;;;;;6187681;28;20303;-79
2023/02/21 18:33:49;;;;;;;6.50;5.20;;;;;;;;;;6186802;28;20294;-79
2023/02/21 18:36:55;;;;;;;6.90;5.47;;;;;;;;;;6209651;28;20306;-80
2023/02/21 18:40:01;;;;;;;8.30;5.13;;;;;;;;;;6212822;28;20492;-80
2023/02/21 18:43:07;;;;;;;5.87;4.60;;;;;;;;;;6213001;28;20600;-80
2023/02/21 18:46:15;;;;;;;5.93;5.20;;;;;;;;;;6212077;28;20318;-78
2023/02/21 18:49:21;;;;;;;7.67;5.23;;;;;;;;;;6227501;28;20305;-78
2023/02/21 18:52:26;;;;;;;5.40;4.83;;;;;;;;;;6213076;28;20397;-78
2023/02/21 18:55:31;;;;;;;5.87;5.27;;;;;;;;;;6209523;28;20294;-80
2023/02/21 18:58:37;;;;;;;6.80;5.00;;;;;;;;;;6212620;28;20299;-78
2023/02/21 19:01:47;;;;;;;5.33;4.93;;;;;;;;;;6211598;28;20573;-79
2023/02/21 19:04:54;;;;;;;7.27;4.90;;;;;;;;;;6210826;28;20579;-80
2023/02/21 19:08:01;;;;;;;7.67;5.23;;;;;;;;;;6212517;28;20483;-81
2023/02/21 19:11:13;;;;;;;5.67;5.10;;;;;;;;;;6199794;28;20295;-79
2023/02/21 19:14:21;;;;;;;6.57;5.27;;;;;;;;;;6188102;28;20304;-79
2023/02/21 19:17:26;;;;;;;5.67;4.93;;;;;;;;;;6187431;28;20305;-79
2023/02/21 19:20:32;;;;;;;6.63;4.90;;;;;;;;;;6185848;28;20322;-79
2023/02/21 19:23:39;;;;;;;5.40;4.90;;;;;;;;;;6188145;28;20385;-79
2023/02/21 19:26:44;;;;;;;5.23;4.73;;;;;;;;;;6186611;28;20306;-80
2023/02/21 19:29:53;;;;;;;4.80;4.40;;;;;;;;;;6202335;28;20311;-79
2023/02/21 19:32:58;;;;;;;6.20;5.03;;;;;;;;;;6186309;28;20297;-78
2023/02/21 19:36:05;;;;;;;6.43;4.93;;;;;;;;;;6201346;28;20562;-80
2023/02/21 19:39:12;;;;;;;6.40;4.90;;;;;;;;;;6211317;28;20305;-78
2023/02/21 19:42:17;;;;;;;5.47;4.97;;;;;;;;;;6226577;28;20452;-78
2023/02/21 19:45:25;;;;;;;5.30;4.80;;;;;;;;;;6211458;28;20307;-80
2023/02/21 19:48:31;;;;;;;4.87;4.47;;;;;;;;;;6211316;28;20563;-79
2023/02/21 19:51:36;;;;;;;5.33;4.93;;;;;;;;;;6211742;28;20567;-79
2023/02/21 19:54:42;;;;;;;7.80;5.17;;;;;;;;;;6211262;28;20295;-78
2023/02/21 19:57:46;;;;;;;5.83;5.10;;;;;;;;;;6210783;28;20329;-79
2023/02/21 20:00:53;;;;;;;7.83;5.00;;;;;;;;;;6212082;28;20296;-78
2023/02/21 20:03:59;;;;;;;7.57;5.00;;;;;;;;;;6211720;28;20318;-79
2023/02/21 20:07:05;;;;;;;6.13;5.10;;;;;;;;;;6211228;28;20291;-80
2023/02/21 20:10:12;;;;;;;5.20;4.90;;;;;;;;;;6203450;28;20290;-79
2023/02/21 20:13:20;;;;;;;5.10;4.70;;;;;;;;;;6187139;28;20293;-79
2023/02/21 20:16:28;;;;;;;6.80;5.03;;;;;;;;;;6185461;28;20296;-80
2023/02/21 20:19:33;;;;;;;5.33;4.73;;;;;;;;;;6186935;28;20488;-80
2023/02/21 20:22:38;;;;;;;5.20;4.70;;;;;;;;;;6186805;28;20443;-78
2023/02/21 20:25:43;;;;;;;6.43;4.77;;;;;;;;;;6187022;28;20296;-78
2023/02/21 20:28:50;;;;;;;4.63;4.33;;;;;;;;;;6186080;28;20306;-79
2023/02/21 20:31:57;;;;;;;4.63;4.30;;;;;;;;;;6185761;28;20316;-79
2023/02/21 20:35:03;;;;;;;4.97;4.57;;;;;;;;;;6191140;28;20295;-80
2023/02/21 20:38:09;;;;;;;7.43;4.97;;;;;;;;;;6210580;28;20297;-80
2023/02/21 20:41:14;;;;;;;4.60;4.30;;;;;;;;;;6209765;28;20295;-79
2023/02/21 20:44:21;;;;;;;6.67;5.03;;;;;;;;;;6209963;28;20333;-78
2023/02/21 20:47:28;;;;;;;5.20;4.73;;;;;;;;;;6211138;28;20290;-78
2023/02/21 20:50:35;;;;;;;5.13;4.70;;;;;;;;;;6212845;28;20313;-79
2023/02/21 20:53:45;;;;;;;5.40;4.90;;;;;;;;;;6210106;28;20302;-79
2023/02/21 20:56:52;;;;;;;4.73;4.30;;;;;;;;;;6211559;28;20294;-79
2023/02/21 20:59:57;;;;;;;6.73;4.63;;;;;;;;;;6210718;28;20302;-79
2023/02/21 21:03:05;;;;;;;8.40;4.20;;;;;;;;;;6210222;28;20293;-79
2023/02/21 21:06:13;;;;;;;8.13;4.90;;;;;;;;;;6208201;28;20278;-78
2023/02/21 21:09:27;;;;;;;8.40;4.67;;;;;;;;;;6211397;28;20318;-79
2023/02/21 21:12:32;;;;;;;5.20;4.70;;;;;;;;;;6166104;28;20291;-79
2023/02/21 21:15:40;;;;;;;5.27;4.20;;;;;;;;;;6167289;28;20549;-78